createdAt,value
2022-09-17T00:00:22.094Z,65.36
2022-09-17T00:03:25.133Z,65.77
2022-09-17T00:06:27.290Z,65.99
2022-09-17T00:09:29.350Z,65.97
2022-09-17T00:12:34.143Z,65.10
2022-09-17T00:15:43.668Z,65.00
2022-09-17T00:18:45.819Z,65.48
2022-09-17T00:21:47.934Z,65.59
2022-09-17T00:24:49.960Z,65.77
2022-09-17T00:27:52.048Z,65.98
2022-09-17T00:30:54.245Z,66.83
2022-09-17T00:33:56.434Z,66.89
2022-09-17T00:36:58.496Z,66.38
2022-09-17T00:40:00.578Z,65.31
2022-09-17T00:43:02.972Z,65.48
2022-09-17T00:46:38.956Z,65.46
2022-09-17T00:49:41.102Z,64.53
2022-09-17T00:52:55.960Z,64.08
2022-09-17T00:56:09.993Z,64.02
2022-09-17T00:59:12.086Z,64.28
2022-09-17T01:02:14.226Z,65.05
2022-09-17T01:05:16.383Z,64.68
2022-09-17T01:08:25.854Z,65.35
2022-09-17T01:11:56.794Z,64.95
2022-09-17T01:15:13.893Z,64.71
2022-09-17T01:19:22.253Z,64.79
2022-09-17T01:23:12.202Z,65.42
2022-09-17T01:26:26.464Z,65.46
2022-09-17T01:29:49.856Z,65.90
2022-09-17T01:33:03.549Z,65.59
2022-09-17T01:36:22.639Z,66.17
2022-09-17T01:39:58.111Z,65.43
2022-09-17T01:43:00.098Z,65.82
2022-09-17T01:46:12.829Z,65.50
2022-09-17T01:49:15.783Z,65.40
2022-09-17T01:52:17.831Z,65.48
2022-09-17T01:55:19.970Z,65.53
2022-09-17T01:58:33.847Z,65.95
2022-09-17T02:01:38.388Z,65.89
2022-09-17T02:05:11.895Z,67.17
2022-09-17T02:08:19.634Z,67.03
2022-09-17T02:11:21.622Z,67.21
2022-09-17T02:14:36.836Z,67.29
2022-09-17T02:17:59.106Z,66.63
2022-09-17T02:21:39.100Z,66.20
2022-09-17T02:25:15.436Z,66.69
2022-09-17T02:28:42.704Z,66.36
2022-09-17T02:31:44.787Z,66.65
2022-09-17T02:34:47.541Z,66.10
2022-09-17T02:37:50.190Z,68.39
2022-09-17T02:41:07.057Z,66.81
2022-09-17T02:44:56.553Z,66.38
2022-09-17T02:48:56.629Z,65.17
2022-09-17T02:52:31.732Z,65.80
2022-09-17T02:55:39.499Z,66.35
2022-09-17T02:58:41.463Z,67.01
2022-09-17T03:01:47.981Z,66.73
2022-09-17T03:04:51.263Z,67.08
2022-09-17T03:07:55.659Z,67.54
2022-09-17T03:10:58.135Z,67.62
2022-09-17T03:14:00.412Z,67.64
2022-09-17T03:17:03.534Z,67.18
2022-09-17T03:20:06.379Z,67.96
2022-09-17T03:23:08.486Z,67.66
2022-09-17T03:26:10.596Z,66.93
2022-09-17T03:29:12.771Z,67.27
2022-09-17T03:32:14.870Z,66.21
2022-09-17T03:35:16.933Z,66.01
2022-09-17T03:38:19.044Z,66.15
2022-09-17T03:41:21.110Z,65.45
2022-09-17T03:44:23.891Z,64.90
2022-09-17T03:47:25.958Z,65.66
2022-09-17T03:50:28.082Z,64.74
2022-09-17T03:53:30.354Z,63.99
2022-09-17T03:56:32.525Z,64.05
2022-09-17T03:59:34.616Z,63.07
2022-09-17T04:02:37.001Z,63.06
2022-09-17T04:05:39.256Z,62.36
2022-09-17T04:08:41.608Z,62.82
2022-09-17T04:11:43.674Z,62.96
2022-09-17T04:14:45.775Z,62.85
2022-09-17T04:17:47.875Z,62.86
2022-09-17T04:20:50.084Z,62.32
2022-09-17T04:23:52.179Z,63.08
2022-09-17T04:26:54.295Z,63.11
2022-09-17T04:29:56.392Z,64.02
2022-09-17T04:32:58.479Z,64.35
2022-09-17T04:36:00.568Z,64.36
2022-09-17T04:39:02.736Z,64.37
2022-09-17T04:42:04.923Z,63.88
2022-09-17T04:45:07.467Z,64.73
2022-09-17T04:48:09.516Z,63.90
2022-09-17T04:51:11.808Z,63.97
2022-09-17T04:54:14.683Z,64.31
2022-09-17T04:57:16.826Z,64.00
2022-09-17T05:00:20.051Z,64.09
2022-09-17T05:03:22.127Z,63.16
2022-09-17T05:06:24.287Z,63.36
2022-09-17T05:09:27.078Z,63.00
2022-09-17T05:12:33.711Z,63.92
2022-09-17T05:15:36.557Z,63.60
2022-09-17T05:18:38.740Z,63.07
2022-09-17T05:21:40.873Z,62.74
2022-09-17T05:24:42.941Z,62.43
2022-09-17T05:27:45.558Z,62.26
2022-09-17T05:30:47.620Z,61.80
2022-09-17T05:33:49.708Z,62.71
2022-09-17T05:36:51.828Z,61.00
2022-09-17T05:39:53.980Z,61.54
2022-09-17T05:43:03.551Z,61.40
2022-09-17T05:46:06.575Z,61.51
2022-09-17T05:49:08.692Z,61.64
2022-09-17T05:52:10.826Z,61.77
2022-09-17T05:55:12.952Z,62.31
2022-09-17T05:58:17.060Z,62.34
2022-09-17T06:01:19.192Z,61.39
2022-09-17T06:04:21.310Z,61.32
2022-09-17T06:07:23.428Z,60.67
2022-09-17T06:10:25.515Z,60.43
2022-09-17T06:13:27.601Z,60.76
2022-09-17T06:16:29.806Z,61.16
2022-09-17T06:19:31.948Z,61.60
2022-09-17T06:22:34.123Z,61.26
2022-09-17T06:25:36.233Z,61.26
2022-09-17T06:28:41.721Z,60.91
2022-09-17T06:31:44.893Z,60.77
2022-09-17T06:34:47.099Z,60.87
2022-09-17T06:37:49.241Z,60.58
2022-09-17T06:40:54.445Z,61.06
2022-09-17T06:43:56.620Z,61.29
2022-09-17T06:46:58.812Z,61.36
2022-09-17T06:50:01.785Z,60.84
2022-09-17T06:53:03.923Z,61.35
2022-09-17T06:56:07.128Z,61.48
2022-09-17T06:59:09.347Z,60.96
2022-09-17T07:02:11.529Z,61.63
2022-09-17T07:05:13.651Z,62.27
2022-09-17T07:08:15.705Z,62.23
2022-09-17T07:11:17.886Z,62.31
2022-09-17T07:14:21.121Z,62.58
2022-09-17T07:17:23.347Z,62.12
2022-09-17T07:20:25.600Z,61.91
2022-09-17T07:23:32.248Z,62.31
2022-09-17T07:26:34.357Z,62.11
2022-09-17T07:29:36.784Z,61.06
2022-09-17T07:32:38.831Z,62.15
2022-09-17T07:35:41.410Z,61.40
2022-09-17T07:38:43.466Z,62.49
2022-09-17T07:41:45.521Z,61.22
2022-09-17T07:44:47.643Z,61.06
2022-09-17T07:47:49.895Z,61.43
2022-09-17T07:50:52.142Z,61.49
2022-09-17T07:53:55.244Z,61.71
2022-09-17T07:56:57.318Z,61.56
2022-09-17T07:59:59.384Z,61.74
2022-09-17T08:03:01.511Z,61.24
2022-09-17T08:06:08.157Z,61.40
2022-09-17T08:09:10.922Z,61.57
2022-09-17T08:12:12.974Z,62.68
2022-09-17T08:15:16.759Z,60.96
2022-09-17T08:18:18.875Z,59.70
2022-09-17T08:21:21.543Z,60.09
2022-09-17T08:24:23.608Z,60.02
2022-09-17T08:27:25.660Z,60.47
2022-09-17T08:30:28.383Z,59.08
2022-09-17T08:33:34.551Z,58.44
2022-09-17T08:36:36.976Z,58.26
2022-09-17T08:39:39.175Z,57.90
2022-09-17T08:42:50.064Z,57.55
2022-09-17T08:45:56.039Z,57.99
2022-09-17T08:49:40.291Z,57.94
2022-09-17T08:53:18.820Z,56.71
2022-09-17T08:56:21.389Z,58.29
2022-09-17T08:59:42.448Z,57.35
2022-09-17T09:03:10.916Z,58.18
2022-09-17T09:06:13.767Z,58.75
2022-09-17T09:09:18.087Z,57.39
2022-09-17T09:12:25.747Z,57.80
2022-09-17T09:15:30.619Z,55.83
2022-09-17T09:18:36.707Z,56.33
2022-09-17T09:21:47.620Z,57.54
2022-09-17T09:25:27.255Z,55.59
2022-09-17T09:29:07.392Z,55.21
2022-09-17T09:32:27.251Z,56.20
2022-09-17T09:35:31.681Z,55.60
2022-09-17T09:39:01.773Z,55.53
2022-09-17T09:42:28.937Z,54.34
2022-09-17T09:46:28.642Z,55.03
2022-09-17T09:49:58.231Z,55.34
2022-09-17T09:54:09.949Z,53.53
2022-09-17T09:57:17.735Z,53.39
2022-09-17T10:00:47.412Z,54.14
2022-09-17T10:03:54.062Z,53.56
2022-09-17T10:07:20.734Z,54.04
2022-09-17T10:10:22.942Z,53.81
2022-09-17T10:13:25.789Z,53.96
2022-09-17T10:16:29.449Z,54.42
2022-09-17T10:19:31.591Z,54.05
2022-09-17T10:22:35.265Z,53.17
2022-09-17T10:25:44.547Z,53.36
2022-09-17T10:28:53.356Z,52.34
2022-09-17T10:31:56.408Z,51.87
2022-09-17T10:35:15.209Z,52.38
2022-09-17T10:38:31.205Z,52.39
2022-09-17T10:41:33.256Z,50.88
2022-09-17T10:44:36.708Z,53.66
2022-09-17T10:47:41.745Z,52.53
2022-09-17T10:50:49.744Z,53.06
2022-09-17T10:54:27.007Z,51.03
2022-09-17T10:57:55.166Z,49.61
2022-09-17T11:01:24.950Z,49.80
2022-09-17T11:04:29.743Z,49.93
2022-09-17T11:08:00.625Z,51.73
2022-09-17T11:11:12.182Z,50.20
2022-09-17T11:14:33.625Z,50.05
2022-09-17T11:18:06.228Z,49.69
2022-09-17T11:21:39.808Z,50.07
2022-09-17T11:24:48.889Z,48.73
2022-09-17T11:28:13.975Z,50.28
2022-09-17T11:31:34.731Z,50.88
2022-09-17T11:35:12.582Z,48.45
2022-09-17T11:38:22.646Z,51.34
2022-09-17T11:41:33.091Z,50.92
2022-09-17T11:45:14.428Z,51.50
2022-09-17T11:48:21.644Z,50.66
2022-09-17T11:51:42.351Z,50.29
2022-09-17T11:55:16.623Z,48.82
2022-09-17T11:58:53.904Z,51.02
2022-09-17T12:02:00.530Z,51.93
2022-09-17T12:05:06.863Z,50.71
2022-09-17T12:08:56.942Z,51.59
2022-09-17T12:12:37.751Z,50.33
2022-09-17T12:15:40.457Z,51.67
2022-09-17T12:19:12.115Z,50.26
2022-09-17T12:22:15.950Z,50.70
2022-09-17T12:25:18.011Z,47.75
2022-09-17T12:28:34.460Z,48.50
2022-09-17T12:31:47.620Z,49.60
2022-09-17T12:36:00.202Z,47.94
2022-09-17T12:39:21.497Z,48.82
2022-09-17T12:42:52.047Z,51.02
2022-09-17T12:46:37.787Z,51.60
2022-09-17T12:50:13.984Z,50.16
2022-09-17T12:53:29.498Z,47.93
2022-09-17T12:57:24.662Z,46.03
2022-09-17T13:00:27.150Z,49.52
2022-09-17T13:03:47.074Z,47.96
2022-09-17T13:07:21.534Z,47.06
2022-09-17T13:10:35.711Z,48.52
2022-09-17T13:13:46.323Z,48.93
2022-09-17T13:17:23.708Z,50.68
2022-09-17T13:20:31.703Z,49.63
2022-09-17T13:23:44.613Z,49.81
2022-09-17T13:26:46.978Z,50.80
2022-09-17T13:29:55.088Z,50.59
2022-09-17T13:32:57.173Z,50.28
2022-09-17T13:35:59.360Z,51.23
2022-09-17T13:39:02.490Z,51.38
2022-09-17T13:42:17.300Z,50.64
2022-09-17T13:45:20.406Z,51.25
2022-09-17T13:48:24.236Z,48.47
2022-09-17T13:51:32.224Z,50.10
2022-09-17T13:54:38.749Z,50.32
2022-09-17T13:57:50.636Z,49.87
2022-09-17T14:00:56.044Z,50.42
2022-09-17T14:03:58.192Z,49.19
2022-09-17T14:07:00.611Z,50.79
2022-09-17T14:10:12.104Z,50.71
2022-09-17T14:13:42.517Z,50.98
2022-09-17T14:16:48.375Z,51.16
2022-09-17T14:19:51.756Z,45.13
2022-09-17T14:22:58.480Z,43.50
2022-09-17T14:26:00.582Z,42.46
2022-09-17T14:30:02.098Z,39.48
2022-09-17T14:33:19.089Z,47.40
2022-09-17T14:36:21.502Z,40.54
2022-09-17T14:39:29.254Z,41.64
2022-09-17T14:42:35.661Z,43.23
2022-09-17T14:45:41.372Z,41.24
2022-09-17T14:48:43.447Z,41.41
2022-09-17T14:51:45.638Z,41.07
2022-09-17T14:54:47.665Z,44.30
2022-09-17T14:58:04.808Z,41.73
2022-09-17T15:01:07.510Z,44.10
2022-09-17T15:04:15.539Z,40.52
2022-09-17T15:07:17.571Z,35.74
2022-09-17T15:10:22.056Z,44.71
2022-09-17T15:13:52.786Z,39.86
2022-09-17T15:16:56.419Z,41.03
2022-09-17T15:19:58.830Z,49.60
2022-09-17T15:23:25.429Z,43.30
2022-09-17T15:26:32.361Z,41.09
2022-09-17T15:29:34.535Z,41.47
2022-09-17T15:32:36.624Z,41.68
2022-09-17T15:35:39.585Z,44.08
2022-09-17T15:38:42.610Z,45.18
2022-09-17T15:41:44.778Z,41.33
2022-09-17T15:44:46.947Z,41.54
2022-09-17T15:48:01.279Z,40.94
2022-09-17T15:51:06.997Z,41.23
2022-09-17T15:54:31.131Z,42.60
2022-09-17T15:57:33.167Z,42.69
2022-09-17T16:00:35.251Z,41.19
2022-09-17T16:03:40.473Z,40.51
2022-09-17T16:06:54.779Z,40.58
2022-09-17T16:09:59.272Z,44.49
2022-09-17T16:13:01.327Z,48.01
2022-09-17T16:16:03.397Z,48.77
2022-09-17T16:19:06.811Z,48.27
2022-09-17T16:22:08.896Z,47.83
2022-09-17T16:25:11.536Z,49.17
2022-09-17T16:28:17.175Z,45.33
2022-09-17T16:31:19.486Z,46.26
2022-09-17T16:34:21.777Z,46.59
2022-09-17T16:37:23.949Z,50.32
2022-09-17T16:40:28.288Z,50.25
2022-09-17T16:43:30.580Z,49.72
2022-09-17T16:46:32.645Z,48.78
2022-09-17T16:49:34.792Z,49.86
2022-09-17T16:52:37.143Z,50.02
2022-09-17T16:55:39.238Z,50.11
2022-09-17T16:58:41.895Z,49.96
2022-09-17T17:01:44.066Z,50.51
2022-09-17T17:04:47.373Z,52.02
2022-09-17T17:07:50.026Z,52.08
2022-09-17T17:10:52.230Z,49.90
2022-09-17T17:13:58.619Z,50.87
2022-09-17T17:17:00.734Z,50.60
2022-09-17T17:20:08.452Z,50.07
2022-09-17T17:23:10.549Z,51.22
2022-09-17T17:26:12.807Z,51.04
2022-09-17T17:29:15.120Z,52.36
2022-09-17T17:32:17.256Z,53.31
2022-09-17T17:35:20.054Z,54.88
2022-09-17T17:38:22.244Z,55.50
2022-09-17T17:41:26.328Z,55.84
2022-09-17T17:44:28.395Z,56.67
2022-09-17T17:47:30.443Z,56.88
2022-09-17T17:50:33.409Z,57.72
2022-09-17T17:53:35.836Z,57.48
2022-09-17T17:56:38.047Z,58.36
2022-09-17T17:59:40.173Z,58.50
2022-09-17T18:02:42.511Z,59.12
2022-09-17T18:05:44.720Z,60.08
2022-09-17T18:08:46.787Z,60.35
2022-09-17T18:11:49.026Z,60.68
2022-09-17T18:14:51.063Z,61.05
2022-09-17T18:17:54.425Z,61.64
2022-09-17T18:21:01.559Z,61.66
2022-09-17T18:24:03.890Z,61.73
2022-09-17T18:27:05.960Z,61.68
2022-09-17T18:30:09.115Z,61.49
2022-09-17T18:33:11.174Z,62.37
2022-09-17T18:36:13.293Z,62.25
2022-09-17T18:39:56.481Z,62.25
2022-09-17T18:42:38.551Z,62.85
2022-09-17T18:45:40.684Z,63.05
2022-09-17T18:48:42.871Z,63.08
2022-09-17T18:51:44.946Z,63.54
2022-09-17T18:54:47.079Z,63.41
2022-09-17T18:57:52.450Z,63.92
2022-09-17T19:00:54.523Z,63.67
2022-09-17T19:03:57.223Z,64.68
2022-09-17T19:06:59.290Z,65.06
2022-09-17T19:10:01.550Z,64.80
2022-09-17T19:13:03.667Z,65.31
2022-09-17T19:16:06.677Z,65.25
2022-09-17T19:19:09.497Z,65.90
2022-09-17T19:22:11.568Z,66.32
2022-09-17T19:25:13.722Z,66.32
2022-09-17T19:28:15.774Z,66.75
2022-09-17T19:31:17.935Z,66.96
2022-09-17T19:34:20.032Z,66.76
2022-09-17T19:37:22.085Z,67.23
2022-09-17T19:40:24.212Z,67.21
2022-09-17T19:43:29.760Z,67.09
2022-09-17T19:46:32.386Z,67.08
2022-09-17T19:49:37.936Z,67.25
2022-09-17T19:52:40.996Z,67.40
2022-09-17T19:55:43.036Z,67.51
2022-09-17T19:58:45.129Z,67.11
2022-09-17T20:01:49.679Z,67.31
2022-09-17T20:04:51.923Z,66.74
2022-09-17T20:07:53.959Z,67.38
2022-09-17T20:10:56.257Z,66.96
2022-09-17T20:14:03.017Z,66.62
2022-09-17T20:17:05.118Z,66.21
2022-09-17T20:20:07.877Z,66.37
2022-09-17T20:23:09.971Z,66.72
2022-09-17T20:26:12.959Z,66.23
2022-09-17T20:29:15.394Z,66.63
2022-09-17T20:32:17.459Z,67.22
2022-09-17T20:35:19.632Z,67.18
2022-09-17T20:41:43.781Z,67.89
2022-09-17T20:44:46.002Z,67.33
2022-09-17T20:47:50.407Z,67.66
2022-09-17T20:51:04.182Z,67.95
2022-09-17T20:54:07.573Z,67.69
2022-09-17T20:57:09.635Z,67.63
2022-09-17T21:00:20.734Z,67.71
2022-09-17T21:03:23.006Z,67.80
2022-09-17T21:06:30.232Z,67.87
2022-09-17T21:09:32.328Z,67.78
2022-09-17T21:12:34.480Z,68.25
2022-09-17T21:15:36.882Z,68.10
2022-09-17T21:18:39.935Z,67.76
2022-09-17T21:21:42.300Z,67.37
2022-09-17T21:24:44.551Z,67.22
2022-09-17T21:27:46.763Z,67.00
2022-09-17T21:30:49.202Z,66.98
2022-09-17T21:33:59.784Z,67.03
2022-09-17T21:37:04.907Z,67.10
2022-09-17T21:40:08.355Z,67.25
2022-09-17T21:43:11.128Z,67.14
2022-09-17T21:46:14.108Z,67.46
2022-09-17T21:49:17.464Z,68.36
2022-09-17T21:52:19.606Z,68.95
2022-09-17T21:55:21.719Z,69.28
2022-09-17T21:58:23.955Z,69.01
2022-09-17T22:01:31.173Z,69.71
2022-09-17T22:04:33.359Z,69.95
2022-09-17T22:07:35.758Z,69.67
2022-09-17T22:10:38.020Z,69.68
2022-09-17T22:13:40.369Z,69.71
2022-09-17T22:16:44.176Z,69.88
2022-09-17T22:19:46.268Z,69.93
2022-09-17T22:22:48.451Z,69.84
2022-09-17T22:26:02.666Z,69.39
2022-09-17T22:29:07.574Z,69.66
2022-09-17T22:32:09.665Z,69.14
2022-09-17T22:35:11.739Z,69.02
2022-09-17T22:38:13.845Z,68.93
2022-09-17T22:41:24.935Z,69.93
2022-09-17T22:44:27.063Z,69.53
2022-09-17T22:47:29.355Z,70.08
2022-09-17T22:50:31.441Z,69.97
2022-09-17T22:53:34.391Z,70.08
2022-09-17T22:56:36.608Z,70.19
2022-09-17T22:59:38.725Z,70.23
2022-09-17T23:02:40.889Z,69.93
2022-09-17T23:05:43.040Z,69.44
2022-09-17T23:08:45.172Z,69.75
2022-09-17T23:11:47.307Z,69.95
2022-09-17T23:14:49.370Z,69.46
2022-09-17T23:17:51.595Z,69.27
2022-09-17T23:21:07.011Z,69.61
2022-09-17T23:24:11.506Z,69.97
2022-09-17T23:27:13.611Z,69.88
2022-09-17T23:30:15.758Z,69.54
2022-09-17T23:33:17.903Z,69.50
2022-09-17T23:36:30.182Z,69.71
2022-09-17T23:39:32.279Z,69.26
2022-09-17T23:42:37.431Z,69.09
2022-09-17T23:45:39.475Z,70.70
2022-09-17T23:48:41.719Z,70.27
2022-09-17T23:51:43.817Z,70.52
2022-09-17T23:54:45.843Z,70.49
2022-09-17T23:57:47.890Z,70.88
